sensor_id;sensor_type;location;lat;lon;timestamp;temperature;humidity
31975;DHT22;18500;43.618;1.474;2023-09-07T11:24:22;29.30;99.90
31975;DHT22;18500;43.618;1.474;2023-09-07T11:26:49;29.30;99.90
31975;DHT22;18500;43.618;1.474;2023-09-07T11:29:15;29.20;99.90
31975;DHT22;18500;43.618;1.474;2023-09-07T11:31:41;29.40;99.90
31975;DHT22;18500;43.618;1.474;2023-09-07T11:34:11;29.40;99.90
31975;DHT22;18500;43.618;1.474;2023-09-07T11:36:38;29.50;99.90
31975;DHT22;18500;43.618;1.474;2023-09-07T11:39:04;29.70;99.90
31975;DHT22;18500;43.618;1.474;2023-09-07T11:41:39;29.80;99.90
31975;DHT22;18500;43.618;1.474;2023-09-07T11:44:06;29.80;99.90
31975;DHT22;18500;43.618;1.474;2023-09-07T11:46:31;29.90;99.90
31975;DHT22;18500;43.618;1.474;2023-09-07T11:48:57;30.00;99.90
31975;DHT22;18500;43.618;1.474;2023-09-07T11:51:22;29.90;99.90
31975;DHT22;18500;43.618;1.474;2023-09-07T11:53:48;30.00;99.90
31975;DHT22;18500;43.618;1.474;2023-09-07T11:56:14;30.00;99.90
31975;DHT22;18500;43.618;1.474;2023-09-07T11:58:39;29.80;99.90
31975;DHT22;18500;43.618;1.474;2023-09-07T12:01:05;29.90;99.90
31975;DHT22;18500;43.618;1.474;2023-09-07T12:03:31;30.00;99.90
31975;DHT22;18500;43.618;1.474;2023-09-07T12:05:58;30.30;99.90
31975;DHT22;18500;43.618;1.474;2023-09-07T12:08:23;30.50;99.90
31975;DHT22;18500;43.618;1.474;2023-09-07T12:10:49;30.40;99.90
31975;DHT22;18500;43.618;1.474;2023-09-07T12:13:14;30.50;99.90
31975;DHT22;18500;43.618;1.474;2023-09-07T12:15:40;30.60;99.90
31975;DHT22;18500;43.618;1.474;2023-09-07T12:18:06;30.60;99.90
31975;DHT22;18500;43.618;1.474;2023-09-07T12:20:32;32.20;99.90
31975;DHT22;18500;43.618;1.474;2023-09-07T12:23:00;35.30;99.90
31975;DHT22;18500;43.618;1.474;2023-09-07T12:25:25;37.50;99.90
31975;DHT22;18500;43.618;1.474;2023-09-07T12:27:51;39.00;99.90
31975;DHT22;18500;43.618;1.474;2023-09-07T12:30:19;39.70;99.90
31975;DHT22;18500;43.618;1.474;2023-09-07T12:32:46;39.90;99.90
31975;DHT22;18500;43.618;1.474;2023-09-07T12:35:11;40.40;99.90
31975;DHT22;18500;43.618;1.474;2023-09-07T12:37:37;41.40;99.90
31975;DHT22;18500;43.618;1.474;2023-09-07T12:40:03;40.70;99.90
31975;DHT22;18500;43.618;1.474;2023-09-07T12:42:37;41.20;99.90
31975;DHT22;18500;43.618;1.474;2023-09-07T12:45:03;41.40;99.90
31975;DHT22;18500;43.618;1.474;2023-09-07T12:47:30;41.40;99.90
31975;DHT22;18500;43.618;1.474;2023-09-07T12:49:55;42.90;99.90
31975;DHT22;18500;43.618;1.474;2023-09-07T12:52:21;42.90;99.90
31975;DHT22;18500;43.618;1.474;2023-09-07T12:54:47;42.80;99.90
31975;DHT22;18500;43.618;1.474;2023-09-07T12:57:12;43.90;99.90
31975;DHT22;18500;43.618;1.474;2023-09-07T12:59:38;44.10;99.90
31975;DHT22;18500;43.618;1.474;2023-09-07T13:02:03;44.50;99.90
31975;DHT22;18500;43.618;1.474;2023-09-07T13:04:29;44.50;99.90
31975;DHT22;18500;43.618;1.474;2023-09-07T13:06:55;43.80;99.90
31975;DHT22;18500;43.618;1.474;2023-09-07T13:09:20;44.80;99.90
31975;DHT22;18500;43.618;1.474;2023-09-07T13:11:46;44.70;99.90
31975;DHT22;18500;43.618;1.474;2023-09-07T13:14:11;45.50;99.90
31975;DHT22;18500;43.618;1.474;2023-09-07T13:16:37;44.90;99.90
31975;DHT22;18500;43.618;1.474;2023-09-07T13:19:02;43.90;99.90
31975;DHT22;18500;43.618;1.474;2023-09-07T13:21:28;44.50;99.90
31975;DHT22;18500;43.618;1.474;2023-09-07T13:23:54;45.40;99.90
31975;DHT22;18500;43.618;1.474;2023-09-07T13:26:19;45.70;99.90
31975;DHT22;18500;43.618;1.474;2023-09-07T13:28:45;44.90;99.90
31975;DHT22;18500;43.618;1.474;2023-09-07T13:31:10;45.60;99.90
31975;DHT22;18500;43.618;1.474;2023-09-07T13:33:36;45.50;99.90
31975;DHT22;18500;43.618;1.474;2023-09-07T13:36:01;46.00;99.90
31975;DHT22;18500;43.618;1.474;2023-09-07T13:38:27;45.00;99.90
31975;DHT22;18500;43.618;1.474;2023-09-07T13:40:53;45.30;99.90
31975;DHT22;18500;43.618;1.474;2023-09-07T13:43:18;44.90;99.90
31975;DHT22;18500;43.618;1.474;2023-09-07T13:45:44;45.80;99.90
31975;DHT22;18500;43.618;1.474;2023-09-07T13:48:09;45.90;99.90
31975;DHT22;18500;43.618;1.474;2023-09-07T13:50:35;46.30;99.90
31975;DHT22;18500;43.618;1.474;2023-09-07T13:53:00;44.80;99.90
31975;DHT22;18500;43.618;1.474;2023-09-07T13:55:26;45.00;99.90
31975;DHT22;18500;43.618;1.474;2023-09-07T13:57:51;44.90;99.90
31975;DHT22;18500;43.618;1.474;2023-09-07T14:00:17;45.20;99.90
31975;DHT22;18500;43.618;1.474;2023-09-07T14:02:42;46.50;99.90
31975;DHT22;18500;43.618;1.474;2023-09-07T14:05:08;46.90;99.90
31975;DHT22;18500;43.618;1.474;2023-09-07T14:07:34;46.60;99.90
31975;DHT22;18500;43.618;1.474;2023-09-07T14:09:59;44.50;99.90
31975;DHT22;18500;43.618;1.474;2023-09-07T14:12:26;44.50;99.90
31975;DHT22;18500;43.618;1.474;2023-09-07T14:14:52;44.70;99.90
31975;DHT22;18500;43.618;1.474;2023-09-07T14:17:17;41.80;99.90
31975;DHT22;18500;43.618;1.474;2023-09-07T14:19:43;39.80;99.90
31975;DHT22;18500;43.618;1.474;2023-09-07T14:22:11;37.80;99.90
31975;DHT22;18500;43.618;1.474;2023-09-07T14:24:36;36.60;99.90
31975;DHT22;18500;43.618;1.474;2023-09-07T14:27:02;35.70;99.90
31975;DHT22;18500;43.618;1.474;2023-09-07T14:29:28;35.10;99.90
31975;DHT22;18500;43.618;1.474;2023-09-07T14:31:54;34.70;99.90
31975;DHT22;18500;43.618;1.474;2023-09-07T14:34:20;34.40;99.90
31975;DHT22;18500;43.618;1.474;2023-09-07T14:36:45;34.20;99.90
31975;DHT22;18500;43.618;1.474;2023-09-07T14:39:11;34.00;99.90
31975;DHT22;18500;43.618;1.474;2023-09-07T14:41:37;33.90;99.90
31975;DHT22;18500;43.618;1.474;2023-09-07T14:44:03;33.90;99.90
31975;DHT22;18500;43.618;1.474;2023-09-07T14:46:29;33.90;99.90
31975;DHT22;18500;43.618;1.474;2023-09-07T14:48:54;33.80;99.90
31975;DHT22;18500;43.618;1.474;2023-09-07T14:51:21;33.60;99.90
31975;DHT22;18500;43.618;1.474;2023-09-07T14:53:47;33.50;99.90
31975;DHT22;18500;43.618;1.474;2023-09-07T14:56:12;33.40;99.90
31975;DHT22;18500;43.618;1.474;2023-09-07T14:58:38;33.40;99.90
31975;DHT22;18500;43.618;1.474;2023-09-07T15:01:03;33.30;99.90
31975;DHT22;18500;43.618;1.474;2023-09-07T15:03:29;33.20;99.90
31975;DHT22;18500;43.618;1.474;2023-09-07T15:05:55;33.00;99.90
31975;DHT22;18500;43.618;1.474;2023-09-07T15:08:20;32.90;99.90
31975;DHT22;18500;43.618;1.474;2023-09-07T15:10:46;32.70;99.90
31975;DHT22;18500;43.618;1.474;2023-09-07T15:13:12;32.90;99.90
31975;DHT22;18500;43.618;1.474;2023-09-07T15:15:37;32.90;99.90
31975;DHT22;18500;43.618;1.474;2023-09-07T15:18:05;32.80;99.90
31975;DHT22;18500;43.618;1.474;2023-09-07T15:20:31;32.80;99.90
31975;DHT22;18500;43.618;1.474;2023-09-07T15:22:56;32.60;99.90
31975;DHT22;18500;43.618;1.474;2023-09-07T15:25:22;32.50;99.90
31975;DHT22;18500;43.618;1.474;2023-09-07T15:27:48;32.50;99.90
31975;DHT22;18500;43.618;1.474;2023-09-07T15:30:13;32.50;99.90
31975;DHT22;18500;43.618;1.474;2023-09-07T15:32:39;32.50;99.90
31975;DHT22;18500;43.618;1.474;2023-09-07T15:35:06;32.50;99.90
31975;DHT22;18500;43.618;1.474;2023-09-07T15:37:32;32.50;99.90
31975;DHT22;18500;43.618;1.474;2023-09-07T15:39:57;32.40;99.90
31975;DHT22;18500;43.618;1.474;2023-09-07T15:42:23;32.30;99.90
31975;DHT22;18500;43.618;1.474;2023-09-07T15:44:48;32.20;99.90
31975;DHT22;18500;43.618;1.474;2023-09-07T15:47:14;32.20;99.90
31975;DHT22;18500;43.618;1.474;2023-09-07T15:49:39;32.20;99.90
31975;DHT22;18500;43.618;1.474;2023-09-07T15:52:09;32.20;99.90
31975;DHT22;18500;43.618;1.474;2023-09-07T15:54:35;32.10;99.90
31975;DHT22;18500;43.618;1.474;2023-09-07T15:57:01;32.00;99.90
31975;DHT22;18500;43.618;1.474;2023-09-07T15:59:28;31.90;99.90
31975;DHT22;18500;43.618;1.474;2023-09-07T16:01:53;31.80;99.90
31975;DHT22;18500;43.618;1.474;2023-09-07T16:04:19;31.70;99.90
31975;DHT22;18500;43.618;1.474;2023-09-07T16:06:44;31.50;99.90
31975;DHT22;18500;43.618;1.474;2023-09-07T16:09:10;31.50;99.90
31975;DHT22;18500;43.618;1.474;2023-09-07T16:11:35;31.30;99.90
31975;DHT22;18500;43.618;1.474;2023-09-07T16:14:01;31.30;99.90
31975;DHT22;18500;43.618;1.474;2023-09-07T16:16:26;31.30;99.90
31975;DHT22;18500;43.618;1.474;2023-09-07T16:18:52;31.30;99.90
31975;DHT22;18500;43.618;1.474;2023-09-07T16:21:17;31.30;99.90
31975;DHT22;18500;43.618;1.474;2023-09-07T16:23:44;31.30;99.90
31975;DHT22;18500;43.618;1.474;2023-09-07T16:26:11;31.10;99.90
31975;DHT22;18500;43.618;1.474;2023-09-07T16:28:36;31.10;99.90
31975;DHT22;18500;43.618;1.474;2023-09-07T16:31:02;31.00;99.90
31975;DHT22;18500;43.618;1.474;2023-09-07T16:33:27;30.90;99.90
31975;DHT22;18500;43.618;1.474;2023-09-07T16:35:53;30.80;99.90
31975;DHT22;18500;43.618;1.474;2023-09-07T16:38:18;30.70;99.90
31975;DHT22;18500;43.618;1.474;2023-09-07T16:40:44;30.50;99.90
31975;DHT22;18500;43.618;1.474;2023-09-07T16:43:09;30.50;99.90
31975;DHT22;18500;43.618;1.474;2023-09-07T16:45:35;30.30;99.90
31975;DHT22;18500;43.618;1.474;2023-09-07T16:48:00;30.30;99.90
31975;DHT22;18500;43.618;1.474;2023-09-07T16:50:26;30.20;99.90
31975;DHT22;18500;43.618;1.474;2023-09-07T16:52:51;30.20;99.90
31975;DHT22;18500;43.618;1.474;2023-09-07T16:55:17;30.20;99.90
31975;DHT22;18500;43.618;1.474;2023-09-07T16:57:42;30.00;99.90
31975;DHT22;18500;43.618;1.474;2023-09-07T17:00:09;30.00;99.90
31975;DHT22;18500;43.618;1.474;2023-09-07T17:02:36;29.90;99.90
31975;DHT22;18500;43.618;1.474;2023-09-07T17:05:02;29.70;99.90
31975;DHT22;18500;43.618;1.474;2023-09-07T17:07:28;29.70;99.90
31975;DHT22;18500;43.618;1.474;2023-09-07T17:09:53;29.50;99.90
31975;DHT22;18500;43.618;1.474;2023-09-07T17:12:19;29.40;99.90
31975;DHT22;18500;43.618;1.474;2023-09-07T17:14:45;29.40;99.90
31975;DHT22;18500;43.618;1.474;2023-09-07T17:17:10;29.20;99.90
31975;DHT22;18500;43.618;1.474;2023-09-07T17:19:36;29.20;99.90
31975;DHT22;18500;43.618;1.474;2023-09-07T17:22:01;29.20;99.90
31975;DHT22;18500;43.618;1.474;2023-09-07T17:24:27;29.10;99.90
31975;DHT22;18500;43.618;1.474;2023-09-07T17:26:53;28.90;99.90
31975;DHT22;18500;43.618;1.474;2023-09-07T17:29:19;28.70;99.90
31975;DHT22;18500;43.618;1.474;2023-09-07T17:31:45;28.60;99.90
31975;DHT22;18500;43.618;1.474;2023-09-07T17:34:10;28.60;99.90
31975;DHT22;18500;43.618;1.474;2023-09-07T17:36:36;28.50;99.90
31975;DHT22;18500;43.618;1.474;2023-09-07T17:39:01;28.40;99.90
31975;DHT22;18500;43.618;1.474;2023-09-07T17:41:29;28.40;99.90
31975;DHT22;18500;43.618;1.474;2023-09-07T17:43:56;28.20;99.90
31975;DHT22;18500;43.618;1.474;2023-09-07T17:46:22;28.10;99.90
31975;DHT22;18500;43.618;1.474;2023-09-07T17:48:48;28.00;99.90
31975;DHT22;18500;43.618;1.474;2023-09-07T17:51:13;27.80;99.90
31975;DHT22;18500;43.618;1.474;2023-09-07T17:53:39;27.70;99.90
31975;DHT22;18500;43.618;1.474;2023-09-07T17:56:10;27.70;99.90
31975;DHT22;18500;43.618;1.474;2023-09-07T17:58:37;27.60;99.90
31975;DHT22;18500;43.618;1.474;2023-09-07T18:01:02;27.50;99.90
31975;DHT22;18500;43.618;1.474;2023-09-07T18:03:28;27.40;99.90
31975;DHT22;18500;43.618;1.474;2023-09-07T18:05:54;27.30;99.90
31975;DHT22;18500;43.618;1.474;2023-09-07T18:08:20;27.20;99.90
31975;DHT22;18500;43.618;1.474;2023-09-07T18:10:45;27.10;99.90
31975;DHT22;18500;43.618;1.474;2023-09-07T18:13:11;27.00;99.90
31975;DHT22;18500;43.618;1.474;2023-09-07T18:15:36;26.90;99.90
31975;DHT22;18500;43.618;1.474;2023-09-07T18:18:02;26.90;99.90
31975;DHT22;18500;43.618;1.474;2023-09-07T18:20:28;26.80;99.90
31975;DHT22;18500;43.618;1.474;2023-09-07T18:22:54;26.60;99.90
31975;DHT22;18500;43.618;1.474;2023-09-07T18:25:19;26.50;99.90
31975;DHT22;18500;43.618;1.474;2023-09-07T18:27:46;26.50;99.90
31975;DHT22;18500;43.618;1.474;2023-09-07T18:30:11;26.50;99.90
31975;DHT22;18500;43.618;1.474;2023-09-07T18:32:37;26.30;99.90
31975;DHT22;18500;43.618;1.474;2023-09-07T18:35:03;26.30;99.90
31975;DHT22;18500;43.618;1.474;2023-09-07T18:37:28;26.20;99.90
31975;DHT22;18500;43.618;1.474;2023-09-07T18:39:57;26.10;99.90
31975;DHT22;18500;43.618;1.474;2023-09-07T18:42:23;26.10;99.90
31975;DHT22;18500;43.618;1.474;2023-09-07T18:44:50;26.10;99.90
31975;DHT22;18500;43.618;1.474;2023-09-07T18:47:15;25.90;99.90
31975;DHT22;18500;43.618;1.474;2023-09-07T18:49:41;25.80;99.90
31975;DHT22;18500;43.618;1.474;2023-09-07T18:52:06;25.70;99.90
31975;DHT22;18500;43.618;1.474;2023-09-07T18:54:32;25.70;99.90
31975;DHT22;18500;43.618;1.474;2023-09-07T18:56:57;25.60;99.90
31975;DHT22;18500;43.618;1.474;2023-09-07T18:59:25;25.60;99.90
31975;DHT22;18500;43.618;1.474;2023-09-07T19:01:50;25.50;99.90
31975;DHT22;18500;43.618;1.474;2023-09-07T19:04:18;25.40;99.90
31975;DHT22;18500;43.618;1.474;2023-09-07T19:06:44;25.40;99.90
31975;DHT22;18500;43.618;1.474;2023-09-07T19:09:09;25.30;99.90
31975;DHT22;18500;43.618;1.474;2023-09-07T19:11:35;25.20;99.90
31975;DHT22;18500;43.618;1.474;2023-09-07T19:14:04;25.10;99.90
31975;DHT22;18500;43.618;1.474;2023-09-07T19:16:29;25.10;99.90
31975;DHT22;18500;43.618;1.474;2023-09-07T19:18:55;25.10;99.90
31975;DHT22;18500;43.618;1.474;2023-09-07T19:21:20;25.00;99.90
31975;DHT22;18500;43.618;1.474;2023-09-07T19:23:46;24.80;99.90
31975;DHT22;18500;43.618;1.474;2023-09-07T19:26:27;24.50;99.90
31975;DHT22;18500;43.618;1.474;2023-09-07T19:28:53;24.20;99.90
31975;DHT22;18500;43.618;1.474;2023-09-07T19:31:19;23.90;99.90
31975;DHT22;18500;43.618;1.474;2023-09-07T19:33:47;23.90;99.90
31975;DHT22;18500;43.618;1.474;2023-09-07T19:36:13;23.70;99.90
31975;DHT22;18500;43.618;1.474;2023-09-07T19:38:38;23.50;99.90
31975;DHT22;18500;43.618;1.474;2023-09-07T19:41:04;23.50;99.90
31975;DHT22;18500;43.618;1.474;2023-09-07T19:43:29;23.70;99.90
31975;DHT22;18500;43.618;1.474;2023-09-07T19:45:55;23.80;99.90
31975;DHT22;18500;43.618;1.474;2023-09-07T19:48:20;23.80;99.90
31975;DHT22;18500;43.618;1.474;2023-09-07T19:50:46;23.90;99.90
31975;DHT22;18500;43.618;1.474;2023-09-07T19:53:11;24.00;99.90
31975;DHT22;18500;43.618;1.474;2023-09-07T19:55:37;23.90;99.90
31975;DHT22;18500;43.618;1.474;2023-09-07T19:58:02;23.90;99.90
31975;DHT22;18500;43.618;1.474;2023-09-07T20:00:28;23.80;99.90
31975;DHT22;18500;43.618;1.474;2023-09-07T20:02:53;23.80;99.90
31975;DHT22;18500;43.618;1.474;2023-09-07T20:05:22;23.70;99.90
31975;DHT22;18500;43.618;1.474;2023-09-07T20:07:47;23.70;99.90
31975;DHT22;18500;43.618;1.474;2023-09-07T20:10:14;23.50;99.90
31975;DHT22;18500;43.618;1.474;2023-09-07T20:12:40;23.50;99.90
31975;DHT22;18500;43.618;1.474;2023-09-07T20:15:05;23.50;99.90
31975;DHT22;18500;43.618;1.474;2023-09-07T20:17:31;23.50;99.90
31975;DHT22;18500;43.618;1.474;2023-09-07T20:19:57;23.40;99.90
31975;DHT22;18500;43.618;1.474;2023-09-07T20:22:23;23.30;99.90
31975;DHT22;18500;43.618;1.474;2023-09-07T20:24:55;23.30;99.90
31975;DHT22;18500;43.618;1.474;2023-09-07T20:27:21;23.20;99.90
31975;DHT22;18500;43.618;1.474;2023-09-07T20:29:47;23.20;99.90
31975;DHT22;18500;43.618;1.474;2023-09-07T20:32:12;23.00;99.90
31975;DHT22;18500;43.618;1.474;2023-09-07T20:34:38;23.00;99.90
31975;DHT22;18500;43.618;1.474;2023-09-07T20:37:03;22.90;99.90
31975;DHT22;18500;43.618;1.474;2023-09-07T20:39:29;22.90;99.90
31975;DHT22;18500;43.618;1.474;2023-09-07T20:41:55;22.90;99.90
31975;DHT22;18500;43.618;1.474;2023-09-07T20:44:21;22.80;99.90
31975;DHT22;18500;43.618;1.474;2023-09-07T20:46:47;22.80;99.90
